Time;durP1;ratioP1;P1;durP2;ratioP2;P2;SDS_P1;SDS_P2;PMS_P1;PMS_P2;Temp;Humidity;BMP_temperature;BMP_pressure;BME280_temperature;BME280_humidity;BME280_pressure;Samples;Min_cycle;Max_cycle;Signal;HPM_P1;HPM_P2
2023/07/02 00:00:05;;;;;;;8.90;5.53;;;;;;;24.72;53.42;99625.16;4956886;29;20039;-79
2023/07/02 00:02:30;;;;;;;8.05;4.82;;;;;;;24.70;53.95;99600.41;4956957;29;20027;-77
2023/07/02 00:04:56;;;;;;;7.90;5.25;;;;;;;24.68;53.15;99603.19;4957014;29;20719;-80
2023/07/02 00:07:21;;;;;;;7.75;4.93;;;;;;;24.67;53.23;99607.69;4956744;29;20098;-77
2023/07/02 00:09:47;;;;;;;6.60;4.90;;;;;;;24.66;53.52;99611.31;4956659;29;20058;-79
2023/07/02 00:12:13;;;;;;;8.73;5.60;;;;;;;24.72;52.94;99603.81;4956871;29;20019;-77
2023/07/02 00:14:38;;;;;;;7.18;4.85;;;;;;;24.71;53.26;99602.13;4939375;29;20365;-78
2023/07/02 00:17:04;;;;;;;7.18;5.40;;;;;;;24.71;53.02;99599.44;4956866;29;20026;-79
2023/07/02 00:19:29;;;;;;;8.55;5.15;;;;;;;24.72;53.10;99598.47;4956710;29;20412;-78
2023/07/02 00:21:55;;;;;;;8.15;5.70;;;;;;;24.71;53.23;99599.44;4956743;29;20047;-77
2023/07/02 00:24:20;;;;;;;8.75;5.97;;;;;;;24.71;52.95;99599.44;4956282;29;20035;-79
2023/07/02 00:26:46;;;;;;;8.98;5.75;;;;;;;24.71;52.98;99599.44;4956535;29;20019;-76
2023/07/02 00:29:11;;;;;;;8.18;5.70;;;;;;;24.66;53.33;99595.31;4956284;29;20386;-78
2023/07/02 00:31:37;;;;;;;7.60;5.45;;;;;;;24.68;53.29;99592.53;4956038;28;20078;-79
2023/07/02 00:34:04;;;;;;;7.25;5.32;;;;;;;24.69;53.21;99590.72;4956436;29;20539;-79
2023/07/02 00:36:30;;;;;;;9.75;6.45;;;;;;;24.70;53.10;99589.75;4956374;29;20031;-78
2023/07/02 00:38:56;;;;;;;8.43;5.88;;;;;;;24.69;53.08;99588.88;4938522;29;20106;-77
2023/07/02 00:41:22;;;;;;;9.00;6.03;;;;;;;24.70;53.03;99585.28;4956095;29;20098;-77
2023/07/02 00:43:47;;;;;;;9.07;5.93;;;;;;;24.64;53.14;99583.03;4956420;29;20499;-79
2023/07/02 00:46:19;;;;;;;8.35;5.70;;;;;;;24.63;53.22;99579.53;4956177;29;20106;-78
2023/07/02 00:48:46;;;;;;;9.75;6.20;;;;;;;24.61;53.23;99570.81;4956273;29;20073;-75
2023/07/02 00:51:15;;;;;;;9.38;6.35;;;;;;;24.60;53.20;99573.59;4938854;29;20373;-78
2023/07/02 00:53:41;;;;;;;7.57;5.95;;;;;;;24.61;53.48;99578.81;4955447;28;20172;-79
2023/07/02 00:56:07;;;;;;;8.98;6.05;;;;;;;24.59;53.22;99572.72;4955994;28;20030;-77
2023/07/02 00:58:37;;;;;;;9.27;6.22;;;;;;;24.59;53.27;99570.06;4956037;29;20026;-79
2023/07/02 01:01:03;;;;;;;8.30;5.75;;;;;;;24.58;53.41;99571.03;4955969;29;20400;-80
2023/07/02 01:03:28;;;;;;;9.27;5.82;;;;;;;24.62;53.26;99569.84;4955588;29;20110;-77
2023/07/02 01:05:54;;;;;;;8.80;6.10;;;;;;;24.59;52.99;99569.22;4955578;29;20498;-78
2023/07/02 01:08:20;;;;;;;9.10;6.07;;;;;;;24.60;53.29;99563.75;4955992;29;20497;-79
2023/07/02 01:10:46;;;;;;;8.18;5.97;;;;;;;24.57;53.57;99566.66;4955645;29;20039;-78
2023/07/02 01:13:16;;;;;;;8.98;6.47;;;;;;;24.61;53.11;99561.94;4955717;29;20043;-78
2023/07/02 01:15:42;;;;;;;9.65;6.13;;;;;;;24.62;52.79;99574.31;4955687;29;20023;-78
2023/07/02 01:18:08;;;;;;;8.38;6.47;;;;;;;24.59;52.89;99562.03;4955516;29;20037;-79
2023/07/02 01:20:35;;;;;;;9.23;6.45;;;;;;;24.58;53.45;99565.69;4955333;29;20494;-78
2023/07/02 01:23:03;;;;;;;9.55;6.70;;;;;;;24.59;53.49;99567.38;4955534;29;20503;-77
2023/07/02 01:25:29;;;;;;;10.40;6.50;;;;;;;24.59;53.29;99567.38;4955648;29;20081;-80
2023/07/02 01:27:55;;;;;;;9.60;6.50;;;;;;;24.57;53.28;99558.66;4955201;29;20027;-78
2023/07/02 01:30:21;;;;;;;8.07;6.25;;;;;;;24.57;53.42;99565.78;4955223;29;20031;-78
2023/07/02 01:32:46;;;;;;;9.88;6.80;;;;;;;24.56;53.07;99556.97;4955330;29;20035;-79
2023/07/02 01:35:11;;;;;;;10.25;6.80;;;;;;;24.57;53.37;99569.31;4954861;29;20031;-77
2023/07/02 01:37:38;;;;;;;9.73;6.70;;;;;;;24.56;53.30;99569.44;4955190;29;20122;-81
2023/07/02 01:40:06;;;;;;;8.02;6.50;;;;;;;24.56;53.12;99562.28;4955156;29;20118;-77
2023/07/02 01:42:32;;;;;;;9.60;6.60;;;;;;;24.56;53.32;99556.97;4954437;28;20074;-78
2023/07/02 01:44:57;;;;;;;8.85;6.57;;;;;;;24.56;53.14;99551.63;4955235;29;20035;-78
2023/07/02 01:47:23;;;;;;;9.35;6.63;;;;;;;24.54;53.44;99557.06;4954913;29;20399;-77
2023/07/02 01:49:50;;;;;;;9.82;6.53;;;;;;;24.52;53.08;99551.00;4954848;29;20027;-78
2023/07/02 01:52:16;;;;;;;8.88;6.50;;;;;;;24.55;53.13;99549.91;4954936;28;20031;-80
2023/07/02 01:54:42;;;;;;;9.25;6.63;;;;;;;24.52;53.83;99544.81;4954857;29;20038;-79
2023/07/02 01:57:07;;;;;;;10.35;6.40;;;;;;;24.54;53.08;99549.06;4954877;28;20027;-80
2023/07/02 01:59:33;;;;;;;10.05;7.45;;;;;;;24.54;53.20;99548.19;4954830;29;20059;-79
2023/07/02 02:01:58;;;;;;;8.73;6.38;;;;;;;24.53;53.46;99551.84;4954923;29;20034;-77
2023/07/02 02:04:23;;;;;;;7.70;6.32;;;;;;;24.52;53.25;99553.66;4937265;29;20042;-78
2023/07/02 02:06:49;;;;;;;9.52;7.18;;;;;;;24.55;52.97;99547.22;4954554;29;20027;-77
2023/07/02 02:09:15;;;;;;;8.63;6.65;;;;;;;24.53;53.18;99543.84;4954905;29;20403;-76
2023/07/02 02:11:45;;;;;;;8.32;6.43;;;;;;;24.55;53.02;99549.91;4954639;29;20039;-80
2023/07/02 02:14:10;;;;;;;9.77;6.65;;;;;;;24.54;52.83;99543.72;4937235;29;20400;-80
2023/07/02 02:16:36;;;;;;;9.02;6.50;;;;;;;24.53;52.83;99536.69;4954662;29;20037;-78
2023/07/02 02:19:02;;;;;;;9.88;7.45;;;;;;;24.53;53.26;99539.38;4953991;29;20693;-78
2023/07/02 02:21:27;;;;;;;8.38;6.60;;;;;;;24.53;52.95;99535.84;4954420;29;20086;-77
2023/07/02 02:23:53;;;;;;;8.40;6.32;;;;;;;24.51;53.00;99532.44;4954356;29;20031;-78
2023/07/02 02:26:21;;;;;;;9.27;6.97;;;;;;;24.51;53.17;99537.78;4954557;29;20031;-77
2023/07/02 02:28:48;;;;;;;9.48;6.82;;;;;;;24.51;53.20;99532.44;4954172;29;20531;-77
2023/07/02 02:31:13;;;;;;;10.63;6.82;;;;;;;24.52;53.03;99528.81;4954613;29;20050;-76
2023/07/02 02:33:39;;;;;;;9.13;6.28;;;;;;;24.50;53.29;99528.91;4954216;29;20114;-79
2023/07/02 02:36:04;;;;;;;9.32;6.75;;;;;;;24.52;53.09;99534.13;4954311;29;20472;-77
2023/07/02 02:38:30;;;;;;;9.77;6.85;;;;;;;24.50;53.27;99530.75;4937045;29;20059;-79
2023/07/02 02:40:55;;;;;;;10.05;6.97;;;;;;;24.51;52.82;99532.44;4954333;29;20038;-76
2023/07/02 02:43:21;;;;;;;8.43;6.65;;;;;;;24.50;52.90;99533.41;4954214;29;20527;-78
2023/07/02 02:45:47;;;;;;;10.07;6.55;;;;;;;24.49;53.09;99534.34;4954325;29;20468;-79
2023/07/02 02:48:12;;;;;;;9.50;6.95;;;;;;;24.48;53.02;99532.66;4953854;29;20031;-78
2023/07/02 02:50:44;;;;;;;8.50;6.68;;;;;;;24.48;52.93;99538.00;4954128;29;20042;-78
2023/07/02 02:53:09;;;;;;;9.75;6.60;;;;;;;24.48;52.80;99538.00;4953994;28;20056;-76
2023/07/02 02:55:36;;;;;;;10.40;6.72;;;;;;;24.49;53.27;99534.34;4953845;28;20122;-79
2023/07/02 02:58:01;;;;;;;9.63;6.80;;;;;;;24.50;52.94;99541.41;4953931;29;20031;-78
2023/07/02 03:00:26;;;;;;;8.55;6.57;;;;;;;24.47;53.10;99533.63;4954179;29;20031;-76
2023/07/02 03:02:52;;;;;;;9.30;7.25;;;;;;;24.47;53.09;99533.63;4953567;29;20031;-80
2023/07/02 03:05:17;;;;;;;9.30;6.53;;;;;;;24.46;53.08;99539.94;4954107;29;20108;-78
2023/07/02 03:07:43;;;;;;;9.30;6.65;;;;;;;24.46;53.31;99540.75;4936822;29;20023;-78
2023/07/02 03:10:09;;;;;;;8.43;6.97;;;;;;;24.43;53.25;99534.81;4954032;29;20043;-78
2023/07/02 03:12:34;;;;;;;9.38;6.82;;;;;;;24.40;53.43;99536.75;4953941;29;20110;-79
2023/07/02 03:15:00;;;;;;;9.77;7.00;;;;;;;24.43;53.15;99529.47;4953943;29;20038;-79
2023/07/02 03:17:25;;;;;;;8.93;6.90;;;;;;;24.44;53.08;99542.72;4953641;29;20527;-80
2023/07/02 03:19:51;;;;;;;9.23;6.60;;;;;;;24.42;53.25;99528.66;4953907;29;20081;-79
2023/07/02 03:22:16;;;;;;;9.35;7.03;;;;;;;24.44;53.11;99532.03;4951454;29;20046;-79
2023/07/02 03:24:42;;;;;;;8.60;6.95;;;;;;;24.43;53.34;99534.81;4953843;29;20035;-79
2023/07/02 03:27:07;;;;;;;9.00;6.97;;;;;;;24.44;53.12;99536.53;4953805;29;20042;-79
2023/07/02 03:29:34;;;;;;;10.20;7.70;;;;;;;24.45;53.30;99530.25;4953767;29;20055;-79
2023/07/02 03:32:01;;;;;;;10.40;6.57;;;;;;;24.42;53.16;99533.13;4953489;29;20035;-77
2023/07/02 03:34:26;;;;;;;8.82;6.97;;;;;;;24.44;53.09;99536.53;4953849;29;20090;-78
2023/07/02 03:36:51;;;;;;;8.60;6.25;;;;;;;24.46;52.74;99539.94;4953446;29;20036;-78
2023/07/02 03:39:17;;;;;;;9.48;7.70;;;;;;;24.43;52.93;99534.81;4953709;29;20118;-78
2023/07/02 03:41:43;;;;;;;11.20;7.82;;;;;;;24.46;53.07;99534.59;4953597;29;20459;-78
2023/07/02 03:44:09;;;;;;;8.57;6.97;;;;;;;24.42;53.09;99539.31;4953478;29;20032;-78
2023/07/02 03:46:34;;;;;;;9.50;6.63;;;;;;;24.42;53.03;99530.44;4953392;29;20122;-77
2023/07/02 03:49:00;;;;;;;9.63;7.50;;;;;;;24.43;53.00;99534.81;4953669;29;20038;-77
2023/07/02 03:51:25;;;;;;;9.23;7.15;;;;;;;24.43;53.20;99534.81;4953429;29;20027;-81
2023/07/02 03:53:51;;;;;;;11.63;8.25;;;;;;;24.44;52.88;99529.38;4953571;29;20043;-78
2023/07/02 03:56:16;;;;;;;9.82;7.32;;;;;;;24.46;53.05;99532.75;4936207;29;20032;-75
2023/07/02 03:58:42;;;;;;;9.40;6.47;;;;;;;24.42;53.06;99527.78;4936258;29;20035;-77
2023/07/02 04:01:07;;;;;;;9.48;7.60;;;;;;;24.42;52.89;99533.13;4953109;29;20035;-77
2023/07/02 04:03:33;;;;;;;10.98;7.40;;;;;;;24.40;53.20;99536.75;4953606;29;20114;-77
2023/07/02 04:05:59;;;;;;;9.30;6.60;;;;;;;24.42;53.32;99530.44;4955156;28;20110;-78
2023/07/02 04:08:24;;;;;;;8.73;6.57;;;;;;;24.40;52.90;99531.41;4956940;29;20031;-76
2023/07/02 04:10:50;;;;;;;10.32;7.93;;;;;;;24.39;53.18;99535.06;4956939;29;20024;-80
2023/07/02 04:13:16;;;;;;;9.48;7.32;;;;;;;24.36;53.17;99529.94;4956749;29;20027;-78
2023/07/02 04:15:41;;;;;;;10.60;8.40;;;;;;;24.40;53.20;99526.09;4956157;29;20059;-75
2023/07/02 04:18:07;;;;;;;12.15;8.00;;;;;;;24.40;53.07;99536.75;4956555;29;20029;-77
2023/07/02 04:20:32;;;;;;;10.38;7.82;;;;;;;24.38;53.03;99533.38;4956931;29;20026;-77
2023/07/02 04:22:58;;;;;;;10.18;6.95;;;;;;;24.38;52.91;99538.69;4956507;29;20388;-78
2023/07/02 04:25:25;;;;;;;10.05;7.82;;;;;;;24.37;53.23;99539.63;4956522;29;20051;-75
2023/07/02 04:27:50;;;;;;;8.68;7.00;;;;;;;24.38;52.86;99533.38;4956436;29;20023;-78
2023/07/02 04:30:16;;;;;;;9.95;7.10;;;;;;;24.38;53.18;99532.50;4956038;29;20106;-78
2023/07/02 04:32:41;;;;;;;10.45;7.25;;;;;;;24.38;53.16;99533.38;4956416;29;20026;-78
2023/07/02 04:35:08;;;;;;;9.15;7.30;;;;;;;24.32;53.33;99533.81;4956387;29;20042;-78
2023/07/02 04:37:34;;;;;;;11.98;7.18;;;;;;;24.33;53.03;99535.50;4956345;29;20027;-76
2023/07/02 04:39:59;;;;;;;10.10;7.15;;;;;;;24.32;53.15;99538.28;4956268;29;20461;-77
2023/07/02 04:42:31;;;;;;;10.25;7.18;;;;;;;24.33;53.39;99532.84;4956346;29;20030;-76
2023/07/02 04:45:01;;;;;;;10.50;8.05;;;;;;;24.35;53.50;99535.41;4955833;29;20543;-77
2023/07/02 04:47:27;;;;;;;9.90;7.13;;;;;;;24.35;53.33;99544.25;4955947;29;20070;-77
2023/07/02 04:49:52;;;;;;;9.48;6.88;;;;;;;24.35;53.21;99540.75;4955941;29;20023;-78
2023/07/02 04:52:18;;;;;;;10.43;7.10;;;;;;;24.37;53.04;99544.97;4955497;29;20491;-77
2023/07/02 04:54:43;;;;;;;9.27;6.63;;;;;;;24.32;53.10;99533.81;4956136;29;20037;-80
2023/07/02 04:57:08;;;;;;;9.35;7.00;;;;;;;24.35;53.00;99538.06;4955967;28;20554;-78
2023/07/02 04:59:34;;;;;;;10.05;7.53;;;;;;;24.32;53.20;99533.81;4955707;29;20035;-77
2023/07/02 05:01:59;;;;;;;9.40;7.40;;;;;;;24.31;53.39;99534.75;4956003;29;20044;-79
2023/07/02 05:04:25;;;;;;;8.52;6.97;;;;;;;24.30;53.34;99534.91;4955862;29;20031;-77
2023/07/02 05:06:50;;;;;;;9.65;6.88;;;;;;;24.33;53.12;99535.50;4955612;29;20391;-77
2023/07/02 05:09:15;;;;;;;9.38;6.95;;;;;;;24.33;53.29;99537.31;4956017;29;20126;-78
2023/07/02 05:11:41;;;;;;;8.80;6.95;;;;;;;24.30;53.10;99529.56;4955698;29;20114;-77
2023/07/02 05:14:06;;;;;;;8.98;6.72;;;;;;;24.31;53.42;99537.44;4955405;29;20515;-76
2023/07/02 05:16:32;;;;;;;8.93;6.43;;;;;;;24.33;53.02;99540.84;4937763;29;20124;-77
2023/07/02 05:18:57;;;;;;;8.50;6.57;;;;;;;24.32;53.12;99539.16;4954983;29;20030;-75
2023/07/02 05:21:22;;;;;;;10.10;6.78;;;;;;;24.30;53.44;99545.56;4938294;29;20129;-79
2023/07/02 05:23:48;;;;;;;8.75;6.65;;;;;;;24.31;53.22;99541.94;4955425;29;20039;-77
2023/07/02 05:26:14;;;;;;;9.68;7.05;;;;;;;24.30;53.18;99557.06;4955478;29;20502;-78
2023/07/02 05:28:39;;;;;;;9.10;6.30;;;;;;;24.31;53.43;99547.25;4938018;29;20034;-77
2023/07/02 05:31:04;;;;;;;7.35;5.78;;;;;;;24.31;53.45;99542.75;4938123;29;20476;-75
2023/07/02 05:33:32;;;;;;;9.40;6.38;;;;;;;24.31;53.41;99542.75;4955470;29;20055;-77
2023/07/02 05:35:57;;;;;;;9.57;6.53;;;;;;;24.31;53.32;99541.94;4955230;29;20035;-78
2023/07/02 05:38:24;;;;;;;7.93;6.47;;;;;;;24.32;53.01;99538.28;4955193;29;20042;-77
2023/07/02 05:40:49;;;;;;;8.30;6.40;;;;;;;24.30;53.22;99537.56;4955015;29;20038;-75
2023/07/02 05:43:14;;;;;;;7.90;5.90;;;;;;;24.29;53.22;99539.38;4954823;29;20031;-77
2023/07/02 05:45:40;;;;;;;8.55;6.40;;;;;;;24.29;53.31;99533.16;4955101;29;20030;-77
2023/07/02 05:48:05;;;;;;;9.23;6.65;;;;;;;24.27;53.56;99543.97;4954860;29;20090;-76
2023/07/02 05:50:31;;;;;;;8.93;6.72;;;;;;;24.29;53.29;99543.84;4937924;29;20158;-76
2023/07/02 05:52:57;;;;;;;8.90;6.13;;;;;;;24.30;53.30;99557.06;4954917;29;20070;-77
2023/07/02 05:55:23;;;;;;;9.15;6.30;;;;;;;24.29;53.12;99555.38;4955023;29;20027;-77
2023/07/02 05:57:48;;;;;;;9.13;6.47;;;;;;;24.30;53.47;99546.41;4954454;28;20506;-78
2023/07/02 06:00:14;;;;;;;9.43;6.00;;;;;;;24.27;53.34;99552.81;4954914;29;20151;-76
2023/07/02 06:02:40;;;;;;;7.85;5.50;;;;;;;24.26;53.52;99555.59;4954703;29;20019;-78
2023/07/02 06:05:05;;;;;;;9.55;6.80;;;;;;;24.25;53.65;99554.75;4954627;29;20469;-76
2023/07/02 06:07:31;;;;;;;8.40;5.25;;;;;;;24.26;53.68;99548.44;4954355;28;20062;-75
2023/07/02 06:09:56;;;;;;;7.05;5.20;;;;;;;24.26;53.35;99545.78;4954879;29;20098;-80
2023/07/02 06:12:22;;;;;;;7.63;5.28;;;;;;;24.28;53.36;99543.00;4937072;29;20126;-75
2023/07/02 06:14:48;;;;;;;8.98;5.80;;;;;;;24.23;53.80;99535.34;4954753;29;20034;-78
2023/07/02 06:17:15;;;;;;;8.07;5.57;;;;;;;24.27;53.51;99536.81;4954599;29;20019;-77
2023/07/02 06:19:41;;;;;;;8.23;5.50;;;;;;;24.27;53.63;99538.63;4954455;29;20023;-76
2023/07/02 06:22:06;;;;;;;7.75;5.78;;;;;;;24.27;53.54;99541.31;4954564;29;20081;-79
2023/07/02 06:24:32;;;;;;;7.78;5.90;;;;;;;24.30;53.13;99559.72;4954318;29;20047;-78
2023/07/02 06:26:57;;;;;;;7.43;5.07;;;;;;;24.26;53.50;99555.59;4953993;29;20039;-77
2023/07/02 06:29:23;;;;;;;7.60;5.22;;;;;;;24.27;53.64;99562.63;4954082;28;20026;-78
2023/07/02 06:31:49;;;;;;;7.10;5.10;;;;;;;24.28;53.36;99559.00;4954847;29;20031;-76
2023/07/02 06:34:15;;;;;;;8.98;5.30;;;;;;;24.27;53.64;99565.31;4954213;29;20480;-77
2023/07/02 06:36:40;;;;;;;6.90;4.82;;;;;;;24.29;53.57;99560.69;4954438;29;20042;-80
2023/07/02 06:39:06;;;;;;;8.25;5.15;;;;;;;24.28;53.61;99556.34;4954095;29;20023;-79
2023/07/02 06:41:31;;;;;;;8.20;5.45;;;;;;;24.27;53.68;99567.97;4953987;28;20020;-78
2023/07/02 06:43:56;;;;;;;7.43;5.05;;;;;;;24.26;53.53;99563.59;4936931;29;20027;-79
2023/07/02 06:46:22;;;;;;;8.82;5.38;;;;;;;24.27;53.48;99559.97;4936873;29;20531;-78
2023/07/02 06:48:47;;;;;;;6.85;4.45;;;;;;;24.27;53.32;99559.97;4954208;29;20070;-78
2023/07/02 06:51:14;;;;;;;6.25;4.68;;;;;;;24.29;53.50;99559.84;4954269;29;20035;-77
2023/07/02 06:53:41;;;;;;;6.40;4.50;;;;;;;24.28;53.42;99561.66;4953723;29;20055;-79
2023/07/02 06:56:09;;;;;;;6.57;5.00;;;;;;;24.27;53.42;99570.63;4953753;28;20029;-78
2023/07/02 06:58:34;;;;;;;6.82;4.63;;;;;;;24.28;53.32;99569.66;4954268;29;20031;-79
2023/07/02 07:01:00;;;;;;;6.43;4.53;;;;;;;24.24;53.56;99566.38;4953867;29;20035;-78
2023/07/02 07:03:25;;;;;;;7.43;5.28;;;;;;;24.27;53.58;99567.97;4936750;29;20035;-79
2023/07/02 07:05:50;;;;;;;7.93;5.07;;;;;;;24.28;53.53;99569.66;4954126;29;20023;-78
2023/07/02 07:08:16;;;;;;;7.65;4.55;;;;;;;24.26;53.64;99566.28;4954025;29;20540;-79
2023/07/02 07:10:41;;;;;;;6.75;4.38;;;;;;;24.30;53.59;99572.22;4953642;29;20023;-76
2023/07/02 07:13:07;;;;;;;6.72;4.57;;;;;;;24.25;53.78;99569.88;4953782;29;20419;-77
2023/07/02 07:15:34;;;;;;;6.65;4.68;;;;;;;24.29;53.80;99570.50;4954080;29;20020;-78
2023/07/02 07:18:00;;;;;;;7.65;4.70;;;;;;;24.30;53.56;99567.72;4953949;29;20394;-79
2023/07/02 07:20:25;;;;;;;6.80;4.95;;;;;;;24.28;53.54;99564.34;4953847;29;20058;-80
2023/07/02 07:22:51;;;;;;;5.82;4.03;;;;;;;24.29;53.78;99571.38;4953537;29;20031;-75
2023/07/02 07:25:16;;;;;;;7.60;4.70;;;;;;;24.28;53.75;99577.66;4936694;29;20412;-78
2023/07/02 07:27:42;;;;;;;6.97;4.78;;;;;;;24.27;53.70;99567.97;4953718;29;20387;-78
2023/07/02 07:30:07;;;;;;;6.28;4.13;;;;;;;24.28;53.32;99569.66;4953699;29;20063;-77
2023/07/02 07:32:33;;;;;;;6.90;4.43;;;;;;;24.25;53.64;99564.53;4953978;29;20579;-77
2023/07/02 07:34:58;;;;;;;6.68;4.57;;;;;;;24.27;53.46;99567.97;4936491;29;20027;-78
2023/07/02 07:37:25;;;;;;;6.85;4.50;;;;;;;24.28;53.54;99567.00;4953302;29;20027;-79
2023/07/02 07:39:50;;;;;;;6.53;4.88;;;;;;;24.27;53.63;99557.31;4953563;28;20110;-77
2023/07/02 07:42:16;;;;;;;5.85;4.07;;;;;;;24.26;53.68;99567.09;4957305;28;20106;-78
2023/07/02 07:44:42;;;;;;;5.82;4.15;;;;;;;24.27;53.57;99573.31;4957036;28;20106;-76
2023/07/02 07:47:08;;;;;;;6.30;4.40;;;;;;;24.28;53.38;99569.66;4957422;28;20031;-79
2023/07/02 07:49:33;;;;;;;6.03;3.88;;;;;;;24.27;53.70;99565.31;4957480;28;20457;-77
2023/07/02 07:51:58;;;;;;;5.30;3.88;;;;;;;24.26;53.52;99575.09;4956901;28;20608;-75
2023/07/02 07:54:24;;;;;;;6.45;4.30;;;;;;;24.28;53.56;99575.00;4949816;28;20051;-79
2023/07/02 07:56:50;;;;;;;5.53;3.72;;;;;;;24.27;53.71;99570.63;4957197;28;20730;-78
2023/07/02 07:59:15;;;;;;;5.78;3.55;;;;;;;24.29;53.81;99571.38;4957252;29;20499;-77
2023/07/02 08:01:41;;;;;;;6.13;4.15;;;;;;;24.31;53.35;99579.25;4957184;29;20020;-77
2023/07/02 08:04:06;;;;;;;5.97;3.80;;;;;;;24.29;53.56;99584.69;4956730;29;20038;-77
2023/07/02 08:06:32;;;;;;;7.05;4.47;;;;;;;24.29;53.57;99587.34;4956576;29;20031;-76
2023/07/02 08:08:57;;;;;;;6.50;3.72;;;;;;;24.31;53.46;99596.09;4956840;29;20038;-80
2023/07/02 08:11:23;;;;;;;5.22;3.72;;;;;;;24.29;53.93;99592.69;4956860;29;20388;-77
2023/07/02 08:13:48;;;;;;;5.70;3.60;;;;;;;24.29;53.71;99591.81;4940323;29;20082;-78
2023/07/02 08:16:13;;;;;;;5.82;3.72;;;;;;;24.28;53.69;99591.00;4955661;29;20452;-79
2023/07/02 08:18:39;;;;;;;5.70;3.75;;;;;;;24.30;53.87;99594.38;4957052;28;20023;-79
2023/07/02 08:21:06;;;;;;;5.78;3.95;;;;;;;24.29;53.95;99597.16;4956633;28;20438;-76
2023/07/02 08:23:32;;;;;;;5.22;3.90;;;;;;;24.29;53.91;99590.03;4956688;28;20028;-78
2023/07/02 08:25:57;;;;;;;5.47;3.67;;;;;;;24.30;53.94;99589.06;4956747;29;20106;-79
2023/07/02 08:28:23;;;;;;;5.30;4.03;;;;;;;24.32;53.84;99584.50;4956706;29;20106;-77
2023/07/02 08:30:48;;;;;;;6.00;3.22;;;;;;;24.33;53.82;99583.50;4939440;29;20480;-78
2023/07/02 08:33:13;;;;;;;5.70;3.63;;;;;;;24.35;53.72;99583.41;4956861;29;20495;-79
2023/07/02 08:35:39;;;;;;;4.80;3.20;;;;;;;24.35;53.92;99591.41;4955703;29;20033;-77
2023/07/02 08:38:04;;;;;;;5.10;3.00;;;;;;;24.35;54.05;99583.41;4956332;29;20023;-79
2023/07/02 08:40:30;;;;;;;4.75;3.05;;;;;;;24.35;53.96;99581.56;4956579;29;20475;-78
2023/07/02 08:42:55;;;;;;;4.22;2.97;;;;;;;24.36;53.62;99583.28;4956418;29;20028;-78
2023/07/02 08:45:26;;;;;;;5.55;3.42;;;;;;;24.35;54.04;99570.91;4956355;29;20090;-78
2023/07/02 08:47:55;;;;;;;5.60;3.33;;;;;;;24.38;53.74;99576.03;4956276;29;20498;-76
2023/07/02 08:50:20;;;;;;;4.70;3.22;;;;;;;24.38;53.82;99581.38;4955997;29;20047;-78
2023/07/02 08:52:46;;;;;;;5.18;3.17;;;;;;;24.38;53.95;99569.84;4955765;28;20062;-77
2023/07/02 08:55:11;;;;;;;4.90;3.25;;;;;;;24.40;53.73;99579.44;4955811;29;20494;-78
2023/07/02 08:57:36;;;;;;;4.78;3.17;;;;;;;24.39;53.75;99583.06;4956179;28;20067;-77
2023/07/02 09:00:10;;;;;;;5.70;3.55;;;;;;;24.39;53.71;99572.41;4956209;29;20027;-78
2023/07/02 09:02:35;;;;;;;4.82;3.25;;;;;;;24.42;53.83;99567.78;4956176;29;20028;-75
2023/07/02 09:05:02;;;;;;;4.90;3.20;;;;;;;24.42;53.64;99557.13;4955469;29;20033;-78
2023/07/02 09:07:27;;;;;;;4.88;3.13;;;;;;;24.44;53.60;99571.22;4955905;29;20051;-78
2023/07/02 09:09:53;;;;;;;4.47;3.08;;;;;;;24.43;53.72;99572.16;4955529;29;20058;-77
2023/07/02 09:12:25;;;;;;;4.38;2.80;;;;;;;24.42;53.64;99587.31;4955635;29;20050;-79
2023/07/02 09:15:02;;;;;;;4.85;3.00;;;;;;;24.43;53.95;99588.16;4955714;29;20034;-76
2023/07/02 09:17:34;;;;;;;4.72;2.85;;;;;;;24.45;53.85;99588.91;4955545;28;20388;-76
2023/07/02 09:20:02;;;;;;;3.72;2.53;;;;;;;24.43;53.89;99591.69;4955600;28;20035;-75
2023/07/02 09:22:27;;;;;;;4.45;2.90;;;;;;;24.43;53.93;99593.50;4955757;28;20094;-80
2023/07/02 09:24:55;;;;;;;3.72;2.42;;;;;;;24.45;53.87;99602.25;4955290;28;20373;-80
2023/07/02 09:27:21;;;;;;;4.50;2.67;;;;;;;24.43;53.97;99590.81;4955384;29;20023;-77
2023/07/02 09:29:52;;;;;;;4.40;2.60;;;;;;;24.45;54.23;99602.25;4955288;28;20086;-77
2023/07/02 09:32:28;;;;;;;4.13;2.78;;;;;;;24.45;53.58;99607.59;4955260;28;20130;-78
2023/07/02 09:34:55;;;;;;;4.05;2.55;;;;;;;24.47;54.19;99597.63;4955069;28;20027;-76
2023/07/02 09:37:21;;;;;;;3.65;2.17;;;;;;;24.46;53.71;99598.59;4955364;29;20032;-76
2023/07/02 09:39:51;;;;;;;3.67;2.38;;;;;;;24.47;54.06;99598.50;4955302;29;20483;-79
2023/07/02 09:42:19;;;;;;;4.13;2.70;;;;;;;24.46;53.85;99598.59;4955090;29;20039;-74
2023/07/02 09:44:45;;;;;;;3.85;2.20;;;;;;;24.47;53.93;99590.50;4955007;29;20059;-75
2023/07/02 09:47:12;;;;;;;3.75;2.35;;;;;;;24.48;53.83;99591.34;4955365;28;20031;-74
2023/07/02 09:49:41;;;;;;;3.30;1.85;;;;;;;24.49;54.04;99590.38;4954780;28;20035;-79
2023/07/02 09:52:09;;;;;;;4.28;2.80;;;;;;;24.49;53.83;99585.91;4954788;28;20050;-77
2023/07/02 09:54:35;;;;;;;3.50;2.47;;;;;;;24.48;53.83;99594.00;4955084;28;20535;-77
2023/07/02 09:57:01;;;;;;;3.78;2.40;;;;;;;24.48;53.72;99592.19;4954959;28;20051;-80
2023/07/02 09:59:28;;;;;;;4.18;2.35;;;;;;;24.49;53.78;99585.91;4954901;29;20027;-76
2023/07/02 10:01:54;;;;;;;3.70;2.38;;;;;;;24.49;54.01;99590.38;4954951;29;20172;-79
2023/07/02 10:04:23;;;;;;;3.83;2.17;;;;;;;24.51;53.84;99599.97;4953894;28;20030;-78
2023/07/02 10:06:50;;;;;;;3.95;2.10;;;;;;;24.51;53.92;99602.63;4954919;29;20110;-77
2023/07/02 10:09:16;;;;;;;3.15;2.08;;;;;;;24.52;53.86;99604.34;4954904;29;20510;-74
2023/07/02 10:11:43;;;;;;;3.90;2.33;;;;;;;24.52;53.52;99603.50;4954931;29;20023;-79
2023/07/02 10:14:08;;;;;;;3.45;2.00;;;;;;;24.51;53.48;99599.97;4954610;29;20575;-78
2023/07/02 10:16:33;;;;;;;3.38;2.10;;;;;;;24.50;53.60;99610.75;4954613;28;20240;-78
2023/07/02 10:19:28;;;;;;;3.28;2.10;;;;;;;24.52;53.67;99614.16;4954308;28;20027;-77
2023/07/02 10:22:04;;;;;;;4.15;2.17;;;;;;;24.50;53.56;99608.09;4946098;28;20046;-78
2023/07/02 10:24:30;;;;;;;3.50;2.05;;;;;;;24.51;54.00;99607.13;4954504;28;20114;-75
2023/07/02 10:27:00;;;;;;;3.67;2.30;;;;;;;24.50;53.75;99613.44;4954203;29;20070;-77
2023/07/02 10:29:28;;;;;;;3.28;2.05;;;;;;;24.49;53.35;99617.03;4937330;29;20015;-77
2023/07/02 10:31:57;;;;;;;3.10;2.00;;;;;;;24.49;53.60;99612.56;4954321;29;20483;-74
2023/07/02 10:34:29;;;;;;;3.50;2.00;;;;;;;24.48;53.43;99613.53;4954236;29;20054;-79
2023/07/02 10:36:55;;;;;;;3.50;2.17;;;;;;;24.48;53.54;99608.19;4954446;28;20035;-77
2023/07/02 10:39:20;;;;;;;3.20;2.13;;;;;;;24.48;53.22;99607.34;4954423;28;20530;-76
2023/07/02 10:41:46;;;;;;;3.30;1.90;;;;;;;24.48;53.49;99608.19;4952916;29;20387;-79
2023/07/02 10:44:11;;;;;;;3.45;2.00;;;;;;;24.47;53.56;99602.97;4953959;29;20030;-77
2023/07/02 10:46:47;;;;;;;3.30;2.00;;;;;;;24.50;53.39;99610.75;4953826;29;20110;-78
2023/07/02 10:49:14;;;;;;;3.33;1.88;;;;;;;24.51;53.26;99609.78;4954222;29;20078;-77
2023/07/02 10:51:39;;;;;;;3.17;1.98;;;;;;;24.50;53.31;99605.44;4954251;29;20047;-77
2023/07/02 10:54:05;;;;;;;3.15;1.83;;;;;;;24.51;53.27;99607.97;4953900;28;20047;-77
2023/07/02 10:56:31;;;;;;;3.88;2.10;;;;;;;24.52;53.25;99603.50;4954129;28;20042;-78
2023/07/02 10:58:57;;;;;;;3.50;2.00;;;;;;;24.54;53.26;99609.56;4954148;29;20035;-76
2023/07/02 11:01:32;;;;;;;3.30;1.92;;;;;;;24.54;53.51;99606.88;4953311;29;20523;-76
2023/07/02 11:04:04;;;;;;;3.35;2.13;;;;;;;24.53;53.51;99605.19;4953929;28;20507;-77
2023/07/02 11:06:34;;;;;;;3.63;2.20;;;;;;;24.53;53.24;99611.38;4954029;29;20086;-77
2023/07/02 11:09:01;;;;;;;3.13;1.65;;;;;;;24.53;53.32;99611.38;4953997;29;20036;-78
2023/07/02 11:11:26;;;;;;;2.65;1.67;;;;;;;24.53;53.39;99605.19;4953842;29;20027;-76
2023/07/02 11:13:52;;;;;;;2.92;1.77;;;;;;;24.51;53.51;99599.97;4953768;29;20031;-80
2023/07/02 11:16:25;;;;;;;2.67;1.75;;;;;;;24.55;53.26;99605.91;4957471;28;20095;-78
2023/07/02 11:19:11;;;;;;;2.95;1.77;;;;;;;24.54;53.66;99604.22;4957781;28;20154;-79
2023/07/02 11:21:37;;;;;;;3.03;1.93;;;;;;;24.56;53.46;99599.63;4957523;28;20058;-75
2023/07/02 11:24:08;;;;;;;3.35;1.88;;;;;;;24.56;53.37;99602.31;4957352;28;20027;-78
2023/07/02 11:26:38;;;;;;;3.22;1.80;;;;;;;24.57;53.46;99604.00;4957805;28;20031;-74